Flight Track Log - Related Links

Times and Time Zones

All times are in EDT time to prevent confusion due to time zone crossing. See the N158RA flight status page for this flight to view local times or setup timezone preferences in your user account.

Time Position Orientation Groundspeed Altitude Reporting Facility
EDT Latitude Longitude Course Direction KTS MPH feet Rate Location/Type
Tue 06:48:21 AM 41.5128 -81.6914 236° Southwest 61 70 900  Level Cleveland Center
Tue 06:48:39 AM 41.5103 -81.6964 236° Southwest 64 74 1,000 532 Climbing Cleveland Center
Tue 06:49:40 AM 41.5281 -81.7078 334° Northwest 102 117 1,600 540 Climbing Cleveland Center
Tue 06:50:19 AM 41.5442 -81.7022 14° North 93 107 1,900 500 Climbing Cleveland Center
Tue 06:50:40 AM 41.5539 -81.7006 North 96 110 2,100 97 Climbing Cleveland Center
Tue 06:51:21 AM 41.5731 -81.7008 359° North 96 110 2,000  Descending Cleveland Center
Tue 06:51:41 AM 41.5828 -81.7081 331° Northwest 107 123 2,100 492 Climbing Cleveland Center
Tue 06:52:22 AM 41.5919 -81.7208 314° West 93 107 2,500 600 Climbing Cleveland Center
Tue 06:52:41 AM 41.5956 -81.7297 299° West 68 78 2,700 484 Climbing Cleveland Center
Tue 06:53:24 AM 41.6014 -81.7422 302° West 75 86 3,000 492 Climbing Cleveland Center
Tue 06:53:42 AM 41.6039 -81.7508 291° West 61 70 3,200 492 Climbing Cleveland Center
Tue 06:54:25 AM 41.6086 -81.7622 299° West 66 76 3,500 393 Climbing Cleveland Center
Tue 06:54:43 AM 41.6083 -81.7711 268° West 56 64 3,600 387 Climbing Cleveland Center
Tue 06:55:27 AM 41.6047 -81.7839 249° West 69 79 3,900 400 Climbing Cleveland Center
Tue 06:55:43 AM 41.6064 -81.7931 284° West 65 75 4,000 98 Climbing Cleveland Center
Tue 06:56:28 AM 41.6067 -81.8089 271° West 66 76 4,000  Level Cleveland Center
Tue 06:56:44 AM 41.6078 -81.8242 276° West 82 94 4,000  Level Cleveland Center
Tue 06:57:30 AM 41.6058 -81.8422 262° West 77 89 4,000  Level Cleveland Center
Tue 06:57:44 AM 41.6047 -81.8572 264° West 93 107 4,000  Level Cleveland Center
Tue 06:58:31 AM 41.6017 -81.8756 257° West 85 98 4,000  Level Cleveland Center
Tue 06:58:45 AM 41.6000 -81.8872 259° West 86 99 4,000  Level Cleveland Center
Tue 06:59:33 AM 41.5972 -81.9106 261° West 85 98 4,000  Level Cleveland Center
Tue 06:59:46 AM 41.5972 -81.9175 270° West 81 93 4,000  Level Cleveland Center
Tue 07:00:34 AM 41.5933 -81.9425 258° West 85 98 4,000  Level Cleveland Center
Tue 07:00:47 AM 41.5919 -81.9503 257° West 86 99 4,000  Level Cleveland Center
Tue 07:01:36 AM 41.5894 -81.9739 262° West 85 98 4,000  Level Cleveland Center
Tue 07:01:47 AM 41.5889 -81.9833 266° West 88 101 4,000  Level Cleveland Center
Tue 07:02:37 AM 41.5922 -82.0064 281° West 85 98 4,000  Level Cleveland Center
Tue 07:02:48 AM 41.5922 -82.0144 270° West 86 99 4,000  Level Cleveland Center
Tue 07:03:48 AM 41.5831 -82.0467 249° West 87 100 4,000  Level Cleveland Center
Tue 07:04:41 AM 41.5833 -82.0689 271° West 85 98 4,000 -50 Level Cleveland Center
Tue 07:05:49 AM 41.5833 -82.1083 270° West 83 96 3,900  Descending Cleveland Center
Tue 07:06:44 AM 41.5794 -82.1319 258° West 85 98 4,000  Climbing Cleveland Center
Tue 07:07:45 AM 41.5789 -82.1631 269° West 86 99 3,900  Descending Cleveland Center
Tue 07:08:47 AM 41.5764 -82.1939 264° West 85 98 4,000 48 Climbing Cleveland Center
Tue 07:09:49 AM 41.5733 -82.2306 264° West 85 98 4,000  Level Cleveland Center
Tue 07:10:50 AM 41.5700 -82.2619 262° West 85 98 4,000 -242 Level Cleveland Center
Tue 07:11:53 AM 41.5653 -82.2983 260° West 87 100 3,500 -484 Descending Cleveland Center
Tue 07:12:54 AM 41.5642 -82.3317 267° West 88 101 3,000 -246 Descending Cleveland Center
Tue 07:13:55 AM 41.5622 -82.3567 264° West 86 99 3,000  Level Cleveland Center
Tue 07:14:55 AM 41.5606 -82.3897 266° West 78 90 3,000  Level Cleveland Center
Tue 07:15:56 AM 41.5578 -82.4200 263° West 83 96 3,000  Level Cleveland Center
Tue 07:16:56 AM 41.5547 -82.4503 262° West 83 96 3,000  Level Cleveland Center
Tue 07:17:57 AM 41.5522 -82.4778 263° West 78 90 3,000 47 Level Cleveland Center
Tue 07:19:03 AM 41.5508 -82.5061 266° West 81 93 3,100  Climbing Cleveland Center
Tue 07:20:05 AM 41.5492 -82.5422 266° West 81 93 3,000 -52 Descending Cleveland Center
Tue 07:20:59 AM 41.5450 -82.5717 259° West 85 98 3,000  Level Cleveland Center
Tue 07:22:00 AM 41.5358 -82.6008 247° West 82 94 3,000  Level Cleveland Center
Tue 07:23:00 AM 41.5389 -82.6322 277° West 84 97 3,000  Level Cleveland Center
Tue 07:23:10 AM 41.5417 -82.6336 339° North 83 96 3,000 -98 Level Cleveland Center
Tue 07:24:01 AM 41.5381 -82.6628 261° West 86 99 2,900 -194 Descending Cleveland Center
Tue 07:24:12 AM 41.5392 -82.6653 301° West 83 96 2,800 -667 Descending Cleveland Center
Tue 07:25:13 AM 41.5358 -82.6994 263° West 86 99 2,100 -600 Descending Cleveland Center
Tue 07:26:02 AM 41.5314 -82.7289 259° West 90 104 1,700 -387 Descending Cleveland Center
Tue 07:26:15 AM 41.5319 -82.7319 284° West 86 99 1,700  Level Cleveland Center
Tue 07:27:03 AM 41.5264 -82.7586 254° West 80 92 1,700  Level Cleveland Center
Tue 07:27:17 AM 41.5272 -82.7619 288° West 86 99 1,700  Level Cleveland Center
Tue 07:28:03 AM 41.5214 -82.7886 254° West 81 93 1,700  Level Cleveland Center
Tue 07:28:18 AM 41.5250 -82.7914 330° Northwest 84 97 1,700 -393 Level Cleveland Center
Tue 07:29:04 AM 41.5225 -82.8194 263° West 83 96 1,300 -484 Descending Cleveland Center
Tue 07:29:20 AM 41.5228 -82.8242 274° West 80 92 1,200 -197 Descending Cleveland Center
Tue 07:30:05 AM 41.5222 -82.8419 268° West 70 81 1,100  Descending Cleveland Center
Tue 07:30:22 AM 41.5197 -82.8494 246° West 73 84 1,200 600 Climbing Cleveland Center
Tue 07:31:05 AM 41.5194 -82.8694 269° West 68 78 1,700 774 Climbing Cleveland Center
Tue 07:31:24 AM 41.5194 -82.8761 270° West 72 83 2,000 689 Climbing Cleveland Center
Tue 07:32:06 AM 41.5156 -82.8883 247° West 63 72 2,400 590 Climbing Cleveland Center
Tue 07:32:25 AM 41.5067 -82.8775 138° Southeast 98 113 2,600 492 Climbing Cleveland Center
Tue 07:33:07 AM 41.5006 -82.8492 106° East 126 145 2,900 290 Climbing Cleveland Center
Tue 07:33:27 AM 41.5031 -82.8308 80° East 119 137 2,900 200 Level Cleveland Center
Tue 07:34:07 AM 41.5097 -82.8006 74° East 142 163 3,100 194 Climbing Cleveland Center
Tue 07:34:29 AM 41.5133 -82.7836 74° East 125 144 3,100 -98 Level Cleveland Center
Tue 07:35:08 AM 41.5231 -82.7497 69° East 145 167 3,000 -97 Descending Cleveland Center
Tue 07:35:31 AM 41.5267 -82.7314 75° East 140 161 3,000  Level Cleveland Center
Tue 07:36:09 AM 41.5325 -82.6983 77° East 143 165 3,000  Level Cleveland Center
Tue 07:36:32 AM 41.5372 -82.6811 70° East 142 163 3,000  Level Cleveland Center
Tue 07:37:09 AM 41.5414 -82.6494 80° East 140 161 3,000  Level Cleveland Center
Tue 07:37:34 AM 41.5464 -82.6308 70° East 141 162 3,000  Level Cleveland Center
Tue 07:38:10 AM 41.5528 -82.5983 75° East 139 160 3,000  Level Cleveland Center
Tue 07:38:36 AM 41.5567 -82.5792 75° East 141 162 3,000  Level Cleveland Center
Tue 07:39:10 AM 41.5622 -82.5467 77° East 142 163 3,000 -98 Level Cleveland Center
Tue 07:39:37 AM 41.5683 -82.5200 73° East 141 162 2,900  Descending Cleveland Center
Tue 07:40:11 AM 41.5714 -82.4953 81° East 141 162 3,000 97 Climbing Cleveland Center
Tue 07:40:39 AM 41.5747 -82.4672 81° East 141 162 3,000  Level Cleveland Center
Tue 07:41:12 AM 41.5767 -82.4428 84° East 141 162 3,000  Level Cleveland Center
Tue 07:41:41 AM 41.5786 -82.4144 85° East 141 162 3,000  Level Cleveland Center
Tue 07:42:12 AM 41.5794 -82.3903 87° East 141 162 3,000  Level Cleveland Center
Tue 07:42:43 AM 41.5817 -82.3619 84° East 141 162 3,000  Level Cleveland Center
Tue 07:43:13 AM 41.5828 -82.3347 87° East 144 166 3,000  Level Cleveland Center
Tue 07:43:44 AM 41.5853 -82.3078 83° East 141 162 3,000  Level Cleveland Center
Tue 07:44:13 AM 41.5858 -82.2822 88° East 144 166 3,000  Level Cleveland Center
Tue 07:44:46 AM 41.5900 -82.2547 79° East 142 163 3,000  Level Cleveland Center
Tue 07:45:14 AM 41.5911 -82.2269 87° East 144 166 3,000  Level Cleveland Center
Tue 07:45:48 AM 41.5936 -82.2003 83° East 142 163 3,000  Level Cleveland Center
Tue 07:46:15 AM 41.5961 -82.1747 83° East 145 167 3,000  Level Cleveland Center
Tue 07:46:50 AM 41.5981 -82.1456 85° East 142 163 3,000  Level Cleveland Center
Tue 07:47:15 AM 41.5992 -82.1192 87° East 146 168 3,000  Level Cleveland Center
Tue 07:47:51 AM 41.6019 -82.0925 82° East 143 165 3,000  Level Cleveland Center
Tue 07:48:16 AM 41.6042 -82.0669 83° East 142 163 3,000  Level Cleveland Center
Tue 07:48:53 AM 41.6058 -82.0400 85° East 142 163 3,000  Level Cleveland Center
Tue 07:49:17 AM 41.6069 -82.0142 87° East 143 165 3,000  Level Cleveland Center
Tue 07:49:55 AM 41.6103 -81.9767 83° East 143 165 3,000  Level Cleveland Center
Tue 07:50:17 AM 41.6122 -81.9592 82° East 146 168 3,000  Level Cleveland Center
Tue 07:50:57 AM 41.6150 -81.9219 84° East 143 165 3,000  Level Cleveland Center
Tue 07:51:18 AM 41.6153 -81.9036 89° East 146 168 3,000  Level Cleveland Center
Tue 07:51:58 AM 41.6192 -81.8692 81° East 143 165 3,000  Level Cleveland Center
Tue 07:52:18 AM 41.6200 -81.8511 86° East 142 163 3,000  Level Cleveland Center
Tue 07:53:00 AM 41.6225 -81.8161 85° East 143 165 3,000  Level Cleveland Center
Tue 07:53:19 AM 41.6247 -81.7989 80° East 141 162 3,000  Level Cleveland Center
Tue 07:54:02 AM 41.6267 -81.7622 86° East 143 165 3,000  Level Cleveland Center
Tue 07:54:19 AM 41.6275 -81.7461 86° East 144 166 3,000  Level Cleveland Center
Tue 07:55:04 AM 41.6317 -81.7092 81° East 143 165 3,000  Level Cleveland Center
Tue 07:55:20 AM 41.6347 -81.6914 77° East 143 165 3,000  Level Cleveland Center
Tue 07:56:06 AM 41.6372 -81.6561 85° East 143 165 3,000  Level Cleveland Center
Tue 07:56:21 AM 41.6394 -81.6389 80° East 142 163 3,000  Level Cleveland Center
Tue 07:57:07 AM 41.6417 -81.6033 85° East 143 165 3,000  Level Cleveland Center
Tue 07:57:21 AM 41.6419 -81.5861 89° East 142 163 3,000  Level Cleveland Center
Tue 07:58:09 AM 41.6347 -81.5522 106° East 146 168 3,000 98 Level Cleveland Center
Tue 07:58:22 AM 41.6272 -81.5392 128° Southeast 141 162 3,100  Climbing Cleveland Center
Tue 07:59:11 AM 41.6083 -81.5208 144° Southeast 140 161 3,000 -492 Descending Cleveland Center
Tue 07:59:23 AM 41.5989 -81.5289 213° Southwest 124 143 2,600 -500 Descending Cleveland Center
Tue 08:00:23 AM 41.5803 -81.5483 218° Southwest 85 98 2,400 -214 Descending Cleveland Center
Tue 08:01:15 AM 41.5717 -81.5728 245° Southwest 92 106 2,200 -316 Descending Cleveland Center
Tue 08:02:17 AM 41.5572 -81.5992 234° Southwest 92 106 1,800 -339 Descending Cleveland Center
Tue 08:03:19 AM 41.5453 -81.6206 233° Southwest 81 93 1,500 -390 Descending Cleveland Center
Tue 08:04:20 AM 41.5336 -81.6469 239° Southwest 79 91 1,000 -244 Descending Cleveland Center
Tue 08:05:22 AM 41.5217 -81.6719 237° Southwest 79 91 1,000  Level Cleveland Center

Login

Don't have an account? Register now (free) for customized features, flight alerts, and more!